createdAt,value
2019-02-07T04:50:20.836Z,-2.96
2019-02-07T04:52:59.050Z,-2.99
2019-02-07T04:55:29.554Z,-2.94
2019-02-07T04:58:04.696Z,-2.81
2019-02-07T05:00:53.378Z,-2.64
2019-02-07T05:03:25.824Z,-2.49
2019-02-07T05:06:07.003Z,-2.31
2019-02-07T05:08:42.142Z,-2.17
2019-02-07T05:11:30.999Z,-2.03
2019-02-07T05:14:20.993Z,-1.91
2019-02-07T05:16:59.095Z,-1.76
2019-02-07T05:19:48.004Z,-1.64
2019-02-07T05:22:26.170Z,-1.58
2019-02-07T05:25:00.800Z,-1.52
2019-02-07T05:27:38.809Z,-1.41
2019-02-07T05:30:29.944Z,-1.36
2019-02-07T05:33:11.053Z,-1.29
2019-02-07T05:35:58.114Z,-1.30
2019-02-07T05:38:33.147Z,-1.22
2019-02-07T05:41:14.087Z,-1.17
2019-02-07T05:44:02.598Z,-1.15
2019-02-07T05:46:53.064Z,-1.10
2019-02-07T05:49:34.633Z,-1.06
2019-02-07T05:52:12.446Z,-1.01
2019-02-07T05:54:56.544Z,-1.01
2019-02-07T05:57:28.954Z,-1.01
2019-02-07T06:00:17.242Z,-1.05
2019-02-07T06:03:05.960Z,-1.02
2019-02-07T06:05:53.274Z,-1.00
2019-02-07T06:08:31.200Z,-0.96
2019-02-07T06:11:09.313Z,-0.93
2019-02-07T06:13:44.080Z,-0.92
2019-02-07T06:16:32.035Z,-0.90
2019-02-07T06:19:16.050Z,-0.93
2019-02-07T06:21:54.062Z,-0.91
2019-02-07T06:24:41.495Z,-0.89
2019-02-07T06:27:29.970Z,-0.88
2019-02-07T06:30:05.090Z,-0.86
2019-02-07T06:32:37.142Z,-0.87
2019-02-07T06:35:09.451Z,-0.85
2019-02-07T06:37:48.165Z,-0.86
2019-02-07T06:40:23.180Z,-0.80
2019-02-07T06:42:55.243Z,-0.78
2019-02-07T06:45:30.061Z,-0.76
2019-02-07T06:48:02.492Z,-0.74
2019-02-07T06:50:46.840Z,-0.70
2019-02-07T06:53:24.810Z,-0.64
2019-02-07T06:56:13.203Z,-0.61
2019-02-07T06:58:47.963Z,-0.55
2019-02-07T07:01:26.196Z,-0.55
2019-02-07T07:04:01.219Z,-0.56
2019-02-07T07:06:36.356Z,-0.47
2019-02-07T07:09:25.467Z,-0.47
2019-02-07T07:12:00.236Z,-0.44
2019-02-07T07:14:32.331Z,-0.42
2019-02-07T07:17:25.858Z,-0.35
2019-02-07T07:20:00.836Z,-0.30
2019-02-07T07:22:45.923Z,-0.31
2019-02-07T07:25:36.094Z,-0.27
2019-02-07T07:28:24.318Z,-0.28
2019-02-07T07:30:59.414Z,-0.16
2019-02-07T07:33:34.202Z,-0.13
2019-02-07T07:36:12.462Z,-0.04
2019-02-07T07:38:47.347Z,0.04
2019-02-07T07:41:35.735Z,0.13
2019-02-07T07:44:14.226Z,0.17
2019-02-07T07:46:46.274Z,0.24
2019-02-07T07:49:36.373Z,0.30
2019-02-07T07:52:17.845Z,0.35
2019-02-07T07:54:52.994Z,0.43
2019-02-07T07:57:37.036Z,0.53
2019-02-07T08:00:12.760Z,0.61
2019-02-07T08:03:03.406Z,0.71
2019-02-07T08:05:41.094Z,0.76
2019-02-07T08:08:19.403Z,0.89
2019-02-07T08:11:00.577Z,0.95
2019-02-07T08:13:35.824Z,1.04
2019-02-07T08:16:14.202Z,1.07
2019-02-07T08:18:49.007Z,1.10
2019-02-07T08:21:29.953Z,1.12
2019-02-07T08:24:02.177Z,1.09
2019-02-07T08:26:34.697Z,1.04
2019-02-07T08:29:23.247Z,1.15
2019-02-07T08:32:11.720Z,1.23
2019-02-07T08:34:43.774Z,1.24
2019-02-07T08:37:15.834Z,1.42
2019-02-07T08:39:50.557Z,1.43
2019-02-07T08:42:34.605Z,1.46
2019-02-07T08:45:10.072Z,1.58
2019-02-07T08:47:58.470Z,1.79
2019-02-07T08:50:24.737Z,1.94
2019-02-07T08:53:12.362Z,2.09
2019-02-07T08:56:00.628Z,2.25
2019-02-07T08:58:38.518Z,2.37
2019-02-07T09:01:27.177Z,2.50
2019-02-07T09:04:05.253Z,2.52
2019-02-07T09:06:55.478Z,2.62
2019-02-07T09:09:33.793Z,2.66
2019-02-07T09:12:08.415Z,2.90
2019-02-07T09:14:52.670Z,2.96
2019-02-07T09:17:24.937Z,3.14
2019-02-07T09:19:57.051Z,3.17
2019-02-07T09:22:41.365Z,3.33
2019-02-07T09:25:13.507Z,3.33
2019-02-07T09:28:02.109Z,3.45
2019-02-07T09:30:52.004Z,3.52
2019-02-07T09:33:33.489Z,3.58
2019-02-07T09:36:10.106Z,3.69
2019-02-07T09:38:51.382Z,3.96
2019-02-07T09:41:26.047Z,4.10
2019-02-07T09:44:14.276Z,4.37
2019-02-07T09:46:49.725Z,4.52
2019-02-07T09:49:27.734Z,4.76
2019-02-07T09:52:14.953Z,4.85
2019-02-07T09:54:49.928Z,4.78
2019-02-07T09:57:37.004Z,4.97
2019-02-07T10:00:14.809Z,5.06
2019-02-07T10:02:46.972Z,5.14
2019-02-07T10:05:34.309Z,5.04
2019-02-07T10:08:06.771Z,5.25
2019-02-07T10:10:54.925Z,5.35
2019-02-07T10:13:26.972Z,5.36
2019-02-07T10:16:01.641Z,5.37
2019-02-07T10:18:53.550Z,5.37
2019-02-07T10:21:42.112Z,5.42
2019-02-07T10:24:14.163Z,5.56
2019-02-07T10:26:48.860Z,5.59
2019-02-07T10:29:21.281Z,5.69
2019-02-07T10:31:56.101Z,5.74
2019-02-07T10:34:34.104Z,5.78
2019-02-07T10:37:12.214Z,6.04
2019-02-07T10:39:50.521Z,6.21
2019-02-07T10:42:38.774Z,6.23
2019-02-07T10:45:17.498Z,6.46
2019-02-07T10:47:58.421Z,6.56
2019-02-07T10:50:39.611Z,6.74
2019-02-07T10:53:28.305Z,6.90
2019-02-07T10:56:16.838Z,7.03
2019-02-07T10:59:05.078Z,7.28
2019-02-07T11:01:52.642Z,7.34
2019-02-07T11:04:24.944Z,7.47
2019-02-07T11:07:03.013Z,7.64
2019-02-07T11:09:38.571Z,7.29
2019-02-07T11:12:13.598Z,7.48
2019-02-07T11:15:02.007Z,7.49
2019-02-07T11:17:34.673Z,7.47
2019-02-07T11:20:12.728Z,7.64
2019-02-07T11:22:50.744Z,7.81
2019-02-07T11:25:31.716Z,7.96
2019-02-07T11:28:10.554Z,7.86
2019-02-07T11:30:40.665Z,7.98
2019-02-07T11:33:12.732Z,7.87
2019-02-07T11:35:47.566Z,8.04
2019-02-07T11:38:33.048Z,7.75
2019-02-07T11:41:24.163Z,7.69
2019-02-07T11:43:56.612Z,7.49
2019-02-07T11:46:28.911Z,7.38
2019-02-07T11:49:06.900Z,7.21
2019-02-07T11:51:49.650Z,7.41
2019-02-07T11:54:36.981Z,7.51
2019-02-07T11:57:09.127Z,7.49
2019-02-07T11:59:47.212Z,7.59
2019-02-07T12:02:22.575Z,7.73
2019-02-07T12:05:11.469Z,7.79
2019-02-07T12:07:59.885Z,7.97
2019-02-07T12:10:40.998Z,8.08
2019-02-07T12:13:18.666Z,8.27
2019-02-07T12:15:50.703Z,8.31
2019-02-07T12:18:28.637Z,8.29
2019-02-07T12:21:00.700Z,8.14
2019-02-07T12:23:33.891Z,8.25
2019-02-07T12:26:06.161Z,8.19
2019-02-07T12:28:38.577Z,8.29
2019-02-07T12:31:10.640Z,8.41
2019-02-07T12:33:59.261Z,8.41
2019-02-07T12:36:37.779Z,8.48
2019-02-07T12:39:10.767Z,8.56
2019-02-07T12:41:54.916Z,8.67
2019-02-07T12:44:43.160Z,8.56
2019-02-07T12:47:15.508Z,8.38
2019-02-07T12:50:04.163Z,8.41
2019-02-07T12:52:52.639Z,8.27
2019-02-07T12:55:33.522Z,8.27
2019-02-07T12:58:08.349Z,8.22
2019-02-07T13:00:56.289Z,8.25
2019-02-07T13:03:37.109Z,8.24
2019-02-07T13:06:18.135Z,8.33
2019-02-07T13:08:53.296Z,8.08
2019-02-07T13:11:41.842Z,8.16
2019-02-07T13:14:13.909Z,8.25
2019-02-07T13:16:46.379Z,8.23
2019-02-07T13:19:40.559Z,8.31
2019-02-07T13:22:13.043Z,8.35
2019-02-07T13:24:45.102Z,8.02
2019-02-07T13:27:33.801Z,7.92
2019-02-07T13:30:14.878Z,7.79
2019-02-07T13:33:02.524Z,7.68
2019-02-07T13:35:46.842Z,7.63
2019-02-07T13:38:24.935Z,7.65
2019-02-07T13:40:59.961Z,7.84
2019-02-07T13:43:32.001Z,7.81
2019-02-07T13:46:07.166Z,8.00
2019-02-07T13:48:39.321Z,8.14
2019-02-07T13:51:12.739Z,8.24
2019-02-07T13:53:51.451Z,8.22
2019-02-07T13:56:39.802Z,8.10
2019-02-07T13:59:14.930Z,8.12
2019-02-07T14:01:50.081Z,8.11
2019-02-07T14:04:38.734Z,8.07
2019-02-07T14:07:11.219Z,7.84
2019-02-07T14:09:44.409Z,7.90
2019-02-07T14:12:16.470Z,7.80
2019-02-07T14:14:54.521Z,7.68
2019-02-07T14:17:41.936Z,7.63
2019-02-07T14:20:23.044Z,7.59
2019-02-07T14:22:58.378Z,7.57
2019-02-07T14:25:42.273Z,7.61
2019-02-07T14:28:23.347Z,7.63
2019-02-07T14:31:01.888Z,7.68
2019-02-07T14:33:51.994Z,7.63
2019-02-07T14:36:26.805Z,7.53
2019-02-07T14:38:58.953Z,7.49
2019-02-07T14:41:43.209Z,7.40
2019-02-07T14:44:31.827Z,7.34
2019-02-07T14:47:02.399Z,7.25
2019-02-07T14:49:34.676Z,7.03
2019-02-07T14:52:05.095Z,6.87
2019-02-07T14:54:35.497Z,6.90
2019-02-07T14:57:05.988Z,6.88
2019-02-07T14:59:36.455Z,6.84
2019-02-07T15:02:06.884Z,6.75
2019-02-07T15:04:37.550Z,6.67
2019-02-07T15:07:07.976Z,6.64
2019-02-07T15:09:38.512Z,6.56
2019-02-07T15:12:08.905Z,6.52
2019-02-07T15:14:39.304Z,6.45
2019-02-07T15:17:09.996Z,6.38
2019-02-07T15:19:41.448Z,6.40
2019-02-07T15:22:11.885Z,6.33
2019-02-07T15:24:42.414Z,6.26
2019-02-07T15:27:13.079Z,6.20
2019-02-07T15:29:43.536Z,6.20
2019-02-07T15:32:14.354Z,6.18
2019-02-07T15:34:44.804Z,6.03
2019-02-07T15:37:15.373Z,5.93
2019-02-07T15:39:45.933Z,5.85
2019-02-07T15:42:16.439Z,5.81
2019-02-07T15:44:46.972Z,5.79
2019-02-07T15:47:17.364Z,5.64
2019-02-07T15:49:47.834Z,5.59
2019-02-07T15:52:18.258Z,5.57
2019-02-07T15:54:48.844Z,5.56
2019-02-07T15:57:19.261Z,5.56
2019-02-07T15:59:50.714Z,5.52
2019-02-07T16:02:21.244Z,5.50
2019-02-07T16:04:51.886Z,5.43
2019-02-07T16:07:22.415Z,5.48
2019-02-07T16:09:54.483Z,5.49
2019-02-07T16:12:25.419Z,5.51
2019-02-07T16:14:55.815Z,5.53
2019-02-07T16:17:26.274Z,5.46
2019-02-07T16:19:56.813Z,5.44
2019-02-07T16:22:27.238Z,5.41
2019-02-07T16:24:57.655Z,5.37
2019-02-07T16:27:28.154Z,5.32
2019-02-07T16:29:58.634Z,5.28
2019-02-07T16:32:29.120Z,5.27
2019-02-07T16:34:59.554Z,5.25
2019-02-07T16:37:29.969Z,5.18
2019-02-07T16:40:00.752Z,5.09
2019-02-07T16:42:31.241Z,4.99
2019-02-07T16:45:03.030Z,4.89
2019-02-07T16:47:37.008Z,4.85
2019-02-07T16:50:13.898Z,4.80
2019-02-07T16:52:46.057Z,4.76
2019-02-07T16:55:17.877Z,4.70
2019-02-07T16:57:49.903Z,4.72
2019-02-07T17:00:25.951Z,4.66
2019-02-07T17:02:57.064Z,4.64
2019-02-07T17:05:27.735Z,4.66
2019-02-07T17:07:58.358Z,4.72
2019-02-07T17:10:37.963Z,4.65
2019-02-07T17:13:10.729Z,4.59
2019-02-07T17:15:41.422Z,4.60
2019-02-07T17:18:12.901Z,4.64
2019-02-07T17:20:43.410Z,4.63
2019-02-07T17:23:13.833Z,4.68
2019-02-07T17:25:44.244Z,4.66
2019-02-07T17:28:15.167Z,4.59
2019-02-07T17:30:45.812Z,4.51
2019-02-07T17:33:16.427Z,4.58
2019-02-07T17:35:46.861Z,4.59
2019-02-07T17:38:17.259Z,4.53
2019-02-07T17:40:47.715Z,4.50
2019-02-07T17:43:18.255Z,4.60
2019-02-07T17:45:48.886Z,4.51
2019-02-07T17:48:20.446Z,4.57
2019-02-07T17:50:50.831Z,4.63
2019-02-07T17:53:21.254Z,4.62
2019-02-07T17:55:51.931Z,4.68
2019-02-07T17:58:23.445Z,4.71
2019-02-07T18:01:01.437Z,4.76
2019-02-07T18:03:32.970Z,4.85
2019-02-07T18:06:04.719Z,4.94
2019-02-07T18:08:35.339Z,5.02
2019-02-07T18:11:05.818Z,5.03
2019-02-07T18:13:36.286Z,5.08
2019-02-07T18:16:06.774Z,5.09
2019-02-07T18:18:37.319Z,5.03
2019-02-07T18:21:07.715Z,4.97
2019-02-07T18:23:38.255Z,4.80
2019-02-07T18:26:08.704Z,4.86
2019-02-07T18:28:39.102Z,4.86
2019-02-07T18:31:09.510Z,4.80
2019-02-07T18:33:41.188Z,4.71
2019-02-07T18:36:11.967Z,4.69
2019-02-07T18:38:42.371Z,4.67
2019-02-07T18:41:12.867Z,4.58
2019-02-07T18:43:43.285Z,4.55
2019-02-07T18:46:13.693Z,4.59
2019-02-07T18:48:44.166Z,4.58
2019-02-07T18:51:14.637Z,4.59
2019-02-07T18:53:45.060Z,4.54
2019-02-07T18:56:15.473Z,4.65
2019-02-07T18:58:45.947Z,4.71
2019-02-07T19:01:16.347Z,4.70
2019-02-07T19:03:47.028Z,4.70
2019-02-07T19:06:17.428Z,4.64
2019-02-07T19:08:47.824Z,4.62
2019-02-07T19:11:18.303Z,4.53
2019-02-07T19:13:48.705Z,4.56
2019-02-07T19:16:19.107Z,4.52
2019-02-07T19:18:49.792Z,4.42
2019-02-07T19:21:20.218Z,4.39
2019-02-07T19:23:50.640Z,4.30
2019-02-07T19:26:21.172Z,4.23
2019-02-07T19:28:51.554Z,4.32
2019-02-07T19:31:22.075Z,4.37
2019-02-07T19:33:52.498Z,4.35
2019-02-07T19:36:22.991Z,4.38
2019-02-07T19:38:53.380Z,4.38
2019-02-07T19:41:23.782Z,4.26
2019-02-07T19:43:54.231Z,4.31
2019-02-07T19:46:24.976Z,4.14
2019-02-07T19:48:55.501Z,4.10
2019-02-07T19:51:26.032Z,3.91
2019-02-07T19:53:56.432Z,3.86
2019-02-07T19:56:26.820Z,3.80
2019-02-07T19:58:57.227Z,3.82
2019-02-07T20:01:27.620Z,3.81
2019-02-07T20:03:58.031Z,3.78
2019-02-07T20:06:28.499Z,3.77
2019-02-07T20:08:58.918Z,3.59
2019-02-07T20:11:30.828Z,3.65
2019-02-07T20:14:01.514Z,3.66
2019-02-07T20:16:31.958Z,3.57
2019-02-07T20:19:02.372Z,3.59
2019-02-07T20:21:32.800Z,3.48
2019-02-07T20:24:03.331Z,3.50
2019-02-07T20:26:33.723Z,3.48
2019-02-07T20:29:04.192Z,3.45
2019-02-07T20:31:34.603Z,3.47
2019-02-07T20:34:05.093Z,3.46
2019-02-07T20:36:35.815Z,3.59
2019-02-07T20:39:07.536Z,3.53
2019-02-07T20:41:38.002Z,3.57
2019-02-07T20:44:08.482Z,3.58
2019-02-07T20:46:38.959Z,3.60
2019-02-07T20:49:10.031Z,3.55
2019-02-07T20:51:40.500Z,3.50
2019-02-07T20:54:10.928Z,3.51
2019-02-07T20:56:41.398Z,3.60
2019-02-07T20:59:11.890Z,3.58
2019-02-07T21:01:42.309Z,3.63
2019-02-07T21:04:12.841Z,3.60
2019-02-07T21:06:43.272Z,3.55
2019-02-07T21:09:13.705Z,3.57
2019-02-07T21:11:44.099Z,3.48
2019-02-07T21:14:14.767Z,3.54
2019-02-07T21:16:45.171Z,3.55
2019-02-07T21:19:15.624Z,3.62
